createdAt,value
2023-01-15T00:01:05.776Z,100774.09
2023-01-15T00:02:11.637Z,100770.75
2023-01-15T00:03:15.728Z,100763.13
2023-01-15T00:04:20.726Z,100766.59
2023-01-15T00:05:24.985Z,100773.53
2023-01-15T00:06:28.746Z,100772.72
2023-01-15T00:07:34.062Z,100770.44
2023-01-15T00:08:38.102Z,100773.53
2023-01-15T00:09:43.078Z,100772.00
2023-01-15T00:10:46.065Z,100764.72
2023-01-15T00:11:49.725Z,100770.44
2023-01-15T00:12:54.110Z,100780.00
2023-01-15T00:13:57.556Z,100766.31
2023-01-15T00:15:01.991Z,100780.06
2023-01-15T00:16:13.644Z,100771.28
2023-01-15T00:17:18.575Z,100774.19
2023-01-15T00:18:22.154Z,100779.91
2023-01-15T00:19:26.580Z,100782.34
2023-01-15T00:20:36.594Z,100776.41
2023-01-15T00:21:41.574Z,100778.38
2023-01-15T00:22:44.920Z,100779.19
2023-01-15T00:24:09.441Z,100779.31
2023-01-15T00:25:32.886Z,100779.31
2023-01-15T00:26:59.824Z,100776.63
2023-01-15T00:28:08.003Z,100782.13
2023-01-15T00:29:33.134Z,100782.72
2023-01-15T00:30:41.969Z,100774.84
2023-01-15T00:31:58.323Z,100772.38
2023-01-15T00:33:01.553Z,100776.97
2023-01-15T00:34:07.537Z,100778.81
2023-01-15T00:35:23.094Z,100770.97
2023-01-15T00:36:31.937Z,100775.66
2023-01-15T00:37:35.673Z,100769.66
2023-01-15T00:38:39.838Z,100762.22
2023-01-15T00:39:45.494Z,100766.47
2023-01-15T00:40:53.504Z,100762.22
2023-01-15T00:41:58.088Z,100761.13
2023-01-15T00:43:04.927Z,100757.81
2023-01-15T00:44:11.662Z,100765.53
2023-01-15T00:45:17.625Z,100755.38
2023-01-15T00:46:22.035Z,100750.47
2023-01-15T00:47:26.519Z,100751.34
2023-01-15T00:48:34.329Z,100752.53
2023-01-15T00:49:44.511Z,100753.28
2023-01-15T00:50:48.011Z,100748.84
2023-01-15T00:51:52.320Z,100741.78
2023-01-15T00:52:55.755Z,100740.84
2023-01-15T00:54:01.692Z,100742.09
2023-01-15T00:55:07.647Z,100744.66
2023-01-15T00:56:12.297Z,100747.53
2023-01-15T00:57:15.750Z,100736.34
2023-01-15T00:58:22.913Z,100738.13
2023-01-15T00:59:28.065Z,100738.38
2023-01-15T01:00:32.208Z,100738.72
2023-01-15T01:01:36.175Z,100733.50
2023-01-15T01:02:40.366Z,100742.97
2023-01-15T01:03:50.383Z,100732.78
2023-01-15T01:04:55.515Z,100732.72
2023-01-15T01:06:05.474Z,100731.75
2023-01-15T01:07:08.741Z,100732.94
2023-01-15T01:08:13.458Z,100726.66
2023-01-15T01:09:20.664Z,100738.72
2023-01-15T01:10:23.929Z,100738.34
2023-01-15T01:11:34.297Z,100726.53
2023-01-15T01:12:39.345Z,100731.66
2023-01-15T01:13:48.483Z,100722.63
2023-01-15T01:14:52.813Z,100730.50
2023-01-15T01:15:59.004Z,100732.78
2023-01-15T01:17:04.653Z,100731.72
2023-01-15T01:18:08.303Z,100733.28
2023-01-15T01:19:16.821Z,100728.81
2023-01-15T01:20:21.893Z,100727.09
2023-01-15T01:21:26.764Z,100730.34
2023-01-15T01:22:34.594Z,100736.28
2023-01-15T01:23:40.346Z,100729.47
2023-01-15T01:24:44.791Z,100732.63
2023-01-15T01:25:48.750Z,100732.09
2023-01-15T01:26:54.322Z,100745.13
2023-01-15T01:27:57.929Z,100737.97
2023-01-15T01:29:01.414Z,100737.91
2023-01-15T01:30:06.946Z,100739.16
2023-01-15T01:31:12.091Z,100730.34
2023-01-15T01:32:15.543Z,100732.09
2023-01-15T01:33:20.419Z,100741.31
2023-01-15T01:34:25.392Z,100727.78
2023-01-15T01:35:35.577Z,100731.66
2023-01-15T01:36:46.044Z,100732.09
2023-01-15T01:37:56.886Z,100726.66
2023-01-15T01:39:01.963Z,100725.78
2023-01-15T01:40:08.842Z,100727.25
2023-01-15T01:41:14.127Z,100727.28
2023-01-15T01:42:19.559Z,100723.47
2023-01-15T01:43:30.855Z,100718.97
2023-01-15T01:44:37.377Z,100723.72
2023-01-15T01:45:42.264Z,100721.19
2023-01-15T01:46:48.749Z,100709.72
2023-01-15T01:48:25.783Z,100711.97
2023-01-15T01:49:31.671Z,100719.44
2023-01-15T01:50:38.850Z,100717.94
2023-01-15T01:51:50.561Z,100722.84
2023-01-15T01:52:59.237Z,100722.41
2023-01-15T01:54:04.253Z,100723.31
2023-01-15T01:55:10.267Z,100712.16
2023-01-15T01:56:13.568Z,100718.06
2023-01-15T01:57:19.802Z,100717.59
2023-01-15T01:58:25.781Z,100721.41
2023-01-15T01:59:32.453Z,100720.22
2023-01-15T02:00:45.708Z,100720.22
2023-01-15T02:01:50.292Z,100720.78
2023-01-15T02:02:58.592Z,100721.84
2023-01-15T02:04:04.050Z,100718.47
2023-01-15T02:05:09.920Z,100715.81
2023-01-15T02:06:15.054Z,100721.44
2023-01-15T02:07:18.493Z,100726.00
2023-01-15T02:08:23.068Z,100715.66
2023-01-15T02:09:31.202Z,100721.31
2023-01-15T02:10:36.390Z,100711.84
2023-01-15T02:11:41.795Z,100712.38
2023-01-15T02:12:52.809Z,100724.63
2023-01-15T02:14:13.000Z,100720.78
2023-01-15T02:15:37.696Z,100712.44
2023-01-15T02:16:46.886Z,100725.00
2023-01-15T02:18:13.287Z,100719.56
2023-01-15T02:19:52.982Z,100713.38
2023-01-15T02:21:11.119Z,100711.97
2023-01-15T02:22:19.939Z,100708.16
2023-01-15T02:23:41.952Z,100708.78
2023-01-15T02:25:15.661Z,100709.78
2023-01-15T02:26:39.627Z,100704.78
2023-01-15T02:27:49.951Z,100706.47
2023-01-15T02:28:59.867Z,100709.19
2023-01-15T02:30:26.988Z,100706.63
2023-01-15T02:31:54.936Z,100701.63
2023-01-15T02:33:18.583Z,100704.88
2023-01-15T02:34:34.987Z,100702.00
2023-01-15T02:35:56.857Z,100707.06
2023-01-15T02:37:23.287Z,100705.66
2023-01-15T02:38:32.125Z,100699.72
2023-01-15T02:39:40.960Z,100707.16
2023-01-15T02:44:22.838Z,100713.53
2023-01-15T02:45:40.019Z,100702.50
2023-01-15T02:46:49.429Z,100708.97
2023-01-15T02:47:58.264Z,100707.59
2023-01-15T02:49:07.096Z,100702.16
2023-01-15T02:50:21.686Z,100705.38
2023-01-15T02:51:38.006Z,100717.06
2023-01-15T02:52:48.028Z,100702.06
2023-01-15T02:54:03.007Z,100712.34
2023-01-15T02:55:20.016Z,100702.72
2023-01-15T02:56:28.784Z,100702.78
2023-01-15T02:57:39.249Z,100716.84
2023-01-15T02:58:46.899Z,100713.25
2023-01-15T03:00:01.838Z,100703.59
2023-01-15T03:01:19.229Z,100709.97
2023-01-15T03:02:30.645Z,100703.38
2023-01-15T03:03:34.394Z,100707.81
2023-01-15T03:04:59.670Z,100701.69
2023-01-15T03:06:11.644Z,100702.41
2023-01-15T03:07:27.954Z,100701.38
2023-01-15T03:08:32.730Z,100711.84
2023-01-15T03:09:37.965Z,100696.38
2023-01-15T03:11:12.390Z,100708.38
2023-01-15T03:12:27.782Z,100717.41
2023-01-15T03:13:51.544Z,100708.59
2023-01-15T03:15:40.693Z,100713.44
2023-01-15T03:16:53.103Z,100703.00
2023-01-15T03:17:56.972Z,100707.94
2023-01-15T03:19:05.603Z,100700.94
2023-01-15T03:20:17.841Z,100713.13
2023-01-15T03:21:31.056Z,100715.66
2023-01-15T03:22:40.298Z,100713.44
2023-01-15T03:23:50.538Z,100715.75
2023-01-15T03:25:14.698Z,100708.00
2023-01-15T03:26:23.669Z,100713.44
2023-01-15T03:27:28.117Z,100707.00
2023-01-15T03:28:37.280Z,100713.03
2023-01-15T03:29:48.221Z,100705.97
2023-01-15T03:30:54.011Z,100711.25
2023-01-15T03:32:00.611Z,100718.00
2023-01-15T03:33:05.757Z,100711.00
2023-01-15T03:34:09.844Z,100716.09
2023-01-15T03:35:41.517Z,100717.13
2023-01-15T03:36:46.469Z,100719.75
2023-01-15T03:37:50.853Z,100719.91
2023-01-15T03:38:55.690Z,100717.84
2023-01-15T03:40:16.654Z,100713.59
2023-01-15T03:41:39.210Z,100717.03
2023-01-15T03:43:26.015Z,100716.44
2023-01-15T03:44:46.086Z,100712.84
2023-01-15T03:45:55.939Z,100719.91
2023-01-15T03:47:13.461Z,100710.06
2023-01-15T03:48:28.319Z,100723.94
2023-01-15T03:49:58.713Z,100726.75
2023-01-15T03:51:41.243Z,100728.00
2023-01-15T03:53:24.205Z,100723.00
2023-01-15T03:55:16.350Z,100728.00
2023-01-15T03:56:45.207Z,100727.41
2023-01-15T03:58:01.206Z,100728.00
2023-01-15T03:59:33.752Z,100721.16
2023-01-15T04:00:52.915Z,100725.19
2023-01-15T04:02:00.423Z,100729.00
2023-01-15T04:03:11.502Z,100730.13
2023-01-15T04:04:16.978Z,100729.38
2023-01-15T04:05:22.401Z,100728.00
2023-01-15T04:06:32.968Z,100726.00
2023-01-15T04:07:37.618Z,100723.72
2023-01-15T04:08:44.907Z,100719.91
2023-01-15T04:09:50.751Z,100722.28
2023-01-15T04:10:59.491Z,100716.09
2023-01-15T04:12:06.913Z,100717.69
2023-01-15T04:13:16.931Z,100717.91
2023-01-15T04:14:19.940Z,100715.28
2023-01-15T04:15:27.616Z,100714.41
2023-01-15T04:16:34.762Z,100708.88
2023-01-15T04:17:40.254Z,100710.28
2023-01-15T04:18:44.605Z,100706.25
2023-01-15T04:19:49.072Z,100714.03
2023-01-15T04:20:53.088Z,100718.31
2023-01-15T04:21:56.072Z,100711.53
2023-01-15T04:23:03.653Z,100711.31
2023-01-15T04:24:08.622Z,100722.19
2023-01-15T04:25:13.082Z,100715.50
2023-01-15T04:26:18.342Z,100715.94
2023-01-15T04:27:22.686Z,100725.19
2023-01-15T04:28:25.424Z,100724.00
2023-01-15T04:29:29.786Z,100733.59
2023-01-15T04:30:35.475Z,100718.94
2023-01-15T04:31:38.860Z,100727.81
2023-01-15T04:34:12.245Z,100723.94
2023-01-15T04:35:16.107Z,100718.88
2023-01-15T04:36:20.862Z,100723.13
2023-01-15T04:37:23.895Z,100713.75
2023-01-15T04:38:27.771Z,100725.09
2023-01-15T04:39:30.878Z,100717.06
2023-01-15T04:40:55.226Z,100723.22
2023-01-15T04:42:27.642Z,100729.97
2023-01-15T04:43:49.207Z,100728.38
2023-01-15T04:44:56.787Z,100728.00
2023-01-15T04:46:02.352Z,100730.50
2023-01-15T04:47:07.234Z,100717.13
2023-01-15T04:48:13.784Z,100722.47
2023-01-15T04:49:19.516Z,100725.13
2023-01-15T04:50:22.523Z,100719.09
2023-01-15T04:51:26.727Z,100720.72
2023-01-15T04:52:37.361Z,100721.59
2023-01-15T04:53:41.081Z,100719.09
2023-01-15T04:54:43.943Z,100715.22
2023-01-15T04:55:48.358Z,100732.91
2023-01-15T04:56:55.856Z,100723.13
2023-01-15T04:58:00.147Z,100720.13
2023-01-15T04:59:14.676Z,100725.22
2023-01-15T05:00:18.501Z,100722.72
2023-01-15T05:01:25.108Z,100712.19
2023-01-15T05:02:29.597Z,100715.66
2023-01-15T05:03:33.763Z,100723.22
2023-01-15T05:04:37.954Z,100722.41
2023-01-15T05:05:43.339Z,100719.31
2023-01-15T05:06:50.124Z,100723.50
2023-01-15T05:07:58.963Z,100720.34
2023-01-15T05:09:08.542Z,100727.41
2023-01-15T05:10:14.217Z,100723.41
2023-01-15T05:11:25.153Z,100719.53
2023-01-15T05:12:30.044Z,100719.25
2023-01-15T05:13:36.158Z,100714.31
2023-01-15T05:14:43.429Z,100716.81
2023-01-15T05:15:49.931Z,100712.44
2023-01-15T05:16:53.891Z,100727.47
2023-01-15T05:17:58.145Z,100718.59
2023-01-15T05:19:05.169Z,100717.69
2023-01-15T05:20:11.540Z,100712.66
2023-01-15T05:21:35.065Z,100714.63
2023-01-15T05:22:38.514Z,100715.97
2023-01-15T05:23:44.143Z,100716.25
2023-01-15T05:24:47.320Z,100718.25
2023-01-15T05:25:56.527Z,100706.56
2023-01-15T05:27:00.870Z,100713.81
2023-01-15T05:28:13.147Z,100707.38
2023-01-15T05:29:18.483Z,100712.94
2023-01-15T05:30:24.468Z,100703.25
2023-01-15T05:31:28.451Z,100712.44
2023-01-15T05:32:40.970Z,100710.22
2023-01-15T05:33:51.267Z,100710.53
2023-01-15T05:34:57.382Z,100707.59
2023-01-15T05:36:06.938Z,100718.47
2023-01-15T05:37:13.900Z,100704.56
2023-01-15T05:38:24.132Z,100710.66
2023-01-15T05:43:11.583Z,100713.44
2023-01-15T05:44:17.791Z,100709.13
2023-01-15T05:45:27.313Z,100712.44
2023-01-15T05:46:42.908Z,100709.78
2023-01-15T05:47:59.918Z,100707.81
2023-01-15T05:49:19.994Z,100712.19
2023-01-15T05:50:24.726Z,100701.72
2023-01-15T05:52:50.828Z,100706.56
2023-01-15T05:54:05.186Z,100713.81
2023-01-15T05:55:13.240Z,100716.53
2023-01-15T05:57:44.875Z,100711.97
2023-01-15T05:58:54.535Z,100718.59
2023-01-15T06:00:40.104Z,100723.00
2023-01-15T06:01:46.866Z,100721.41
2023-01-15T06:03:15.021Z,100711.84
2023-01-15T06:04:21.718Z,100720.94
2023-01-15T06:05:28.096Z,100708.91
2023-01-15T06:06:41.983Z,100719.94
2023-01-15T06:12:34.140Z,100713.44
2023-01-15T06:13:42.408Z,100714.56
2023-01-15T06:15:13.604Z,100710.25
2023-01-15T06:16:27.876Z,100706.84
2023-01-15T06:17:34.142Z,100692.53
2023-01-15T06:18:42.438Z,100699.75
2023-01-15T06:19:48.772Z,100710.47
2023-01-15T06:21:05.703Z,100700.63
2023-01-15T06:22:29.545Z,100714.94
2023-01-15T06:23:45.615Z,100716.91
2023-01-15T06:24:55.066Z,100722.19
2023-01-15T06:26:02.283Z,100709.06
2023-01-15T06:27:15.165Z,100712.28
2023-01-15T07:05:59.534Z,100731.59
2023-01-15T08:37:01.766Z,100700.91
2023-01-15T08:38:22.137Z,100715.69
2023-01-15T08:39:29.262Z,100704.38
2023-01-15T08:40:36.207Z,100703.09
2023-01-15T08:41:45.797Z,100705.81
2023-01-15T08:46:42.864Z,100701.28
2023-01-15T08:47:47.572Z,100700.69
2023-01-15T08:48:51.732Z,100694.00
2023-01-15T08:49:58.057Z,100697.97
2023-01-15T08:51:09.769Z,100696.88
2023-01-15T08:57:32.056Z,100695.50
2023-01-15T08:58:52.877Z,100699.63
2023-01-15T09:02:45.277Z,100697.66
2023-01-15T09:04:49.573Z,100698.72
2023-01-15T09:57:22.910Z,100668.22
2023-01-15T10:21:56.295Z,100664.72
2023-01-15T10:38:08.558Z,100678.22
2023-01-15T10:44:14.662Z,100646.03
2023-01-15T10:49:30.082Z,100658.44
2023-01-15T11:27:40.455Z,100618.53
2023-01-15T11:29:30.198Z,100619.53
2023-01-15T11:30:55.210Z,100609.38
2023-01-15T11:33:57.687Z,100627.00
2023-01-15T11:38:52.075Z,100609.44
2023-01-15T11:42:42.662Z,100593.75
2023-01-15T12:11:48.125Z,100582.44
2023-01-15T12:25:33.903Z,100601.22
2023-01-15T12:31:16.045Z,100589.31
2023-01-15T12:33:02.457Z,100593.44
2023-01-15T12:34:50.165Z,100602.41
2023-01-15T12:36:32.139Z,100594.78
2023-01-15T12:38:17.171Z,100596.34
2023-01-15T12:39:50.692Z,100600.38
2023-01-15T12:41:57.979Z,100601.00
2023-01-15T12:44:20.403Z,100606.75
2023-01-15T12:45:37.330Z,100605.13
2023-01-15T12:46:59.161Z,100594.38
2023-01-15T13:02:00.994Z,100614.63
2023-01-15T13:04:52.319Z,100616.03
2023-01-15T13:16:31.158Z,100626.78
2023-01-15T13:31:46.550Z,100629.31
2023-01-15T13:35:03.269Z,100632.31
2023-01-15T13:38:48.640Z,100623.81
2023-01-15T13:42:56.498Z,100638.06
2023-01-15T13:52:42.903Z,100634.19
2023-01-15T13:57:51.654Z,100624.50
2023-01-15T13:59:52.769Z,100628.34
2023-01-15T14:01:33.297Z,100625.91
2023-01-15T14:03:09.251Z,100629.38
2023-01-15T14:05:42.661Z,100625.53
2023-01-15T14:06:54.463Z,100631.06
2023-01-15T14:09:12.624Z,100634.41
2023-01-15T14:10:24.242Z,100635.13
2023-01-15T14:14:54.233Z,100636.41
2023-01-15T14:16:19.509Z,100634.59
2023-01-15T14:20:39.711Z,100644.38
2023-01-15T14:22:25.306Z,100645.47
2023-01-15T14:24:41.358Z,100641.22
2023-01-15T14:28:44.938Z,100641.44
2023-01-15T14:30:37.947Z,100653.38
2023-01-15T14:43:12.827Z,100629.56
2023-01-15T14:44:32.694Z,100639.63
2023-01-15T14:45:39.792Z,100644.66
2023-01-15T14:46:48.973Z,100646.44
2023-01-15T14:50:42.449Z,100646.44
2023-01-15T14:52:21.893Z,100633.50
2023-01-15T14:53:50.305Z,100641.44
2023-01-15T14:54:57.977Z,100634.78
2023-01-15T14:56:24.508Z,100640.16
2023-01-15T14:59:37.641Z,100632.31
2023-01-15T15:00:58.185Z,100625.88
2023-01-15T15:02:46.675Z,100613.03
2023-01-15T15:04:25.649Z,100614.94
2023-01-15T15:05:40.182Z,100621.03
2023-01-15T15:07:07.079Z,100624.06
2023-01-15T15:10:43.970Z,100605.75
2023-01-15T15:12:24.598Z,100612.22
2023-01-15T15:13:58.172Z,100620.84
2023-01-15T15:15:21.652Z,100608.56
2023-01-15T15:18:53.325Z,100605.34
2023-01-15T15:20:46.885Z,100607.06
2023-01-15T15:22:17.272Z,100616.78
2023-01-15T15:23:52.560Z,100600.47
2023-01-15T15:26:27.040Z,100602.19
2023-01-15T15:27:43.882Z,100597.19
2023-01-15T15:44:15.625Z,100580.97
2023-01-15T15:45:56.086Z,100577.72
2023-01-15T15:48:19.649Z,100577.19
2023-01-15T15:49:41.945Z,100576.41
2023-01-15T15:51:12.869Z,100571.53
2023-01-15T15:52:40.928Z,100578.41
2023-01-15T15:53:50.285Z,100574.69
2023-01-15T15:55:05.167Z,100580.44
2023-01-15T15:56:42.082Z,100580.84
2023-01-15T15:57:50.364Z,100575.13
2023-01-15T15:59:54.991Z,100571.19
2023-01-15T16:04:02.596Z,100562.38
2023-01-15T16:05:23.759Z,100560.78
2023-01-15T16:06:34.687Z,100561.31
2023-01-15T16:08:19.328Z,100564.75
2023-01-15T16:34:22.523Z,100514.91
2023-01-15T16:37:04.895Z,100512.28
2023-01-15T16:39:57.646Z,100499.28
2023-01-15T16:41:44.822Z,100491.91
2023-01-15T16:43:12.449Z,100497.09
2023-01-15T16:44:47.092Z,100497.38
2023-01-15T16:46:33.683Z,100488.91
2023-01-15T16:48:07.554Z,100511.69
2023-01-15T16:49:30.819Z,100494.91
2023-01-15T16:51:02.777Z,100473.94
2023-01-15T16:52:39.813Z,100484.44
2023-01-15T16:53:44.524Z,100487.22
2023-01-15T16:54:55.349Z,100499.69
2023-01-15T16:56:04.468Z,100491.91
2023-01-15T16:57:38.459Z,100478.56
2023-01-15T16:58:43.266Z,100477.47
2023-01-15T17:00:05.035Z,100499.28
2023-01-15T17:01:47.788Z,100477.16
2023-01-15T17:02:53.761Z,100472.16
2023-01-15T17:04:01.254Z,100472.56
2023-01-15T17:05:25.075Z,100488.97
2023-01-15T17:06:30.504Z,100489.50
2023-01-15T17:07:39.497Z,100491.09
2023-01-15T17:08:51.793Z,100478.56
2023-01-15T17:10:18.496Z,100500.19
2023-01-15T17:11:32.256Z,100485.94
2023-01-15T17:12:56.593Z,100483.09
2023-01-15T17:14:29.772Z,100487.66
2023-01-15T17:21:36.237Z,100492.84
2023-01-15T17:24:36.408Z,100493.13
2023-01-15T17:25:41.163Z,100490.94
2023-01-15T17:26:49.121Z,100493.25
2023-01-15T17:28:00.511Z,100489.38
2023-01-15T17:29:17.282Z,100490.50
2023-01-15T17:30:34.564Z,100489.38
2023-01-15T17:31:49.902Z,100491.75
2023-01-15T17:33:03.443Z,100492.69
2023-01-15T17:34:16.249Z,100494.38
2023-01-15T17:35:32.219Z,100490.88
2023-01-15T17:36:42.467Z,100498.06
2023-01-15T17:37:46.115Z,100492.03
2023-01-15T17:38:54.843Z,100500.81
2023-01-15T17:40:01.386Z,100500.41
2023-01-15T17:41:17.694Z,100501.44
2023-01-15T17:42:29.729Z,100497.03
2023-01-15T17:43:42.649Z,100511.69
2023-01-15T17:44:52.403Z,100505.47
2023-01-15T17:45:58.498Z,100506.25
2023-01-15T17:47:02.685Z,100510.53
2023-01-15T17:48:10.925Z,100517.69
2023-01-15T17:49:25.081Z,100504.50
2023-01-15T17:50:42.418Z,100514.47
2023-01-15T17:51:51.602Z,100510.31
2023-01-15T17:53:15.388Z,100509.50
2023-01-15T17:54:45.429Z,100511.91
2023-01-15T17:56:17.694Z,100537.78
2023-01-15T18:08:31.619Z,100522.69
2023-01-15T18:09:40.195Z,100522.97
2023-01-15T18:10:49.667Z,100517.41
2023-01-15T18:11:58.104Z,100532.94
2023-01-15T18:13:03.253Z,100523.13
2023-01-15T18:14:09.061Z,100529.56
2023-01-15T18:15:14.977Z,100526.06
2023-01-15T18:16:19.364Z,100524.03
2023-01-15T18:17:25.099Z,100511.75
2023-01-15T18:18:36.823Z,100526.94
2023-01-15T18:19:41.634Z,100515.84
2023-01-15T18:20:47.839Z,100513.66
2023-01-15T18:21:53.150Z,100504.72
2023-01-15T18:22:55.464Z,100506.25
2023-01-15T18:23:59.856Z,100516.09
2023-01-15T18:25:07.084Z,100513.91
2023-01-15T18:26:12.562Z,100507.41
2023-01-15T18:27:19.513Z,100510.31
2023-01-15T18:29:20.780Z,100502.09
2023-01-15T18:30:35.130Z,100498.63
2023-01-15T18:32:13.170Z,100504.72
2023-01-15T18:33:19.476Z,100496.22
2023-01-15T18:34:30.527Z,100503.53
2023-01-15T18:35:38.737Z,100497.84
2023-01-15T18:37:02.525Z,100498.84
2023-01-15T18:38:39.632Z,100497.31
2023-01-15T18:39:46.585Z,100503.34
2023-01-15T18:40:57.353Z,100500.34
2023-01-15T18:42:03.051Z,100493.75
2023-01-15T18:43:27.441Z,100493.13
2023-01-15T18:44:55.783Z,100488.84
2023-01-15T18:46:24.760Z,100489.97
2023-01-15T18:48:10.350Z,100484.38
2023-01-15T18:49:14.844Z,100498.56
2023-01-15T18:50:25.708Z,100489.34
2023-01-15T18:51:31.576Z,100500.41
2023-01-15T18:52:56.712Z,100482.59
2023-01-15T18:54:11.709Z,100490.94
2023-01-15T18:55:31.238Z,100481.78
2023-01-15T18:56:42.796Z,100490.06
2023-01-15T18:57:47.676Z,100485.72
2023-01-15T18:58:58.212Z,100487.22
2023-01-15T19:00:08.488Z,100496.66
2023-01-15T19:01:20.679Z,100488.47
2023-01-15T19:02:30.067Z,100488.00
2023-01-15T19:05:24.932Z,100490.41
2023-01-15T19:06:53.185Z,100486.63
2023-01-15T19:08:00.895Z,100494.09
2023-01-15T19:09:13.981Z,100479.22
2023-01-15T19:10:23.223Z,100484.13
2023-01-15T19:11:50.457Z,100486.91
2023-01-15T19:12:55.036Z,100486.47
2023-01-15T19:14:19.565Z,100478.19
2023-01-15T19:15:42.958Z,100472.19
2023-01-15T19:17:05.034Z,100475.47
2023-01-15T19:18:31.709Z,100476.19
2023-01-15T19:20:01.546Z,100477.91
2023-01-15T19:21:14.672Z,100475.78
2023-01-15T19:22:40.481Z,100471.69
2023-01-15T19:23:55.186Z,100476.28
2023-01-15T19:25:01.502Z,100468.88
2023-01-15T19:26:08.029Z,100466.16
2023-01-15T19:27:28.143Z,100465.22
2023-01-15T19:28:43.390Z,100457.03
2023-01-15T19:29:53.519Z,100467.88
2023-01-15T19:31:36.639Z,100458.84
2023-01-15T19:32:47.163Z,100453.13
2023-01-15T19:34:31.151Z,100467.78
2023-01-15T19:35:53.067Z,100449.91
2023-01-15T19:37:09.114Z,100463.81
2023-01-15T19:38:26.618Z,100445.97
2023-01-15T19:39:36.721Z,100459.41
2023-01-15T19:40:46.917Z,100453.72
2023-01-15T19:42:20.111Z,100443.69
2023-01-15T19:43:47.525Z,100450.94
2023-01-15T19:45:13.524Z,100443.03
2023-01-15T19:46:41.690Z,100440.16
2023-01-15T19:48:06.915Z,100449.38
2023-01-15T19:49:43.135Z,100447.28
2023-01-15T19:50:49.805Z,100439.84
2023-01-15T19:52:22.123Z,100435.56
2023-01-15T19:53:28.812Z,100432.00
2023-01-15T19:54:55.490Z,100430.25
2023-01-15T19:56:17.270Z,100428.72
2023-01-15T19:57:27.534Z,100432.44
2023-01-15T19:58:42.482Z,100437.56
2023-01-15T19:59:56.061Z,100438.31
2023-01-15T20:01:18.658Z,100430.19
2023-01-15T20:02:30.959Z,100420.44
2023-01-15T20:06:06.982Z,100421.53
2023-01-15T20:07:29.287Z,100418.69
2023-01-15T20:09:05.536Z,100423.88
2023-01-15T20:10:41.403Z,100424.03
2023-01-15T20:12:08.351Z,100422.22
2023-01-15T20:13:38.131Z,100426.31
2023-01-15T20:15:27.626Z,100428.41
2023-01-15T20:16:32.074Z,100425.78
2023-01-15T20:19:33.278Z,100429.69
2023-01-15T20:25:55.720Z,100427.41
2023-01-15T20:27:11.721Z,100415.00
2023-01-15T20:28:27.876Z,100415.81
2023-01-15T20:29:40.650Z,100426.84
2023-01-15T20:30:47.778Z,100434.16
2023-01-15T20:31:57.378Z,100421.03
2023-01-15T20:33:07.650Z,100427.41
2023-01-15T20:36:09.727Z,100421.25
2023-01-15T20:37:19.581Z,100412.97
2023-01-15T20:38:31.615Z,100418.69
2023-01-15T20:39:37.789Z,100412.16
2023-01-15T20:40:49.065Z,100425.22
2023-01-15T20:42:13.265Z,100410.75
2023-01-15T20:43:43.440Z,100414.88
2023-01-15T20:44:56.593Z,100400.13
2023-01-15T20:46:20.911Z,100421.41
2023-01-15T20:47:48.918Z,100409.22
2023-01-15T20:49:11.313Z,100414.94
2023-01-15T20:50:17.651Z,100415.69
2023-01-15T20:51:41.387Z,100411.88
2023-01-15T20:52:50.566Z,100416.66
2023-01-15T20:54:02.194Z,100418.69
2023-01-15T20:55:09.043Z,100402.25
2023-01-15T20:56:19.409Z,100417.28
2023-01-15T20:57:30.245Z,100407.06
2023-01-15T20:58:35.947Z,100403.66
2023-01-15T20:59:39.771Z,100399.56
2023-01-15T21:00:43.160Z,100406.91
2023-01-15T21:01:51.308Z,100404.97
2023-01-15T21:03:02.241Z,100404.75
2023-01-15T21:04:14.893Z,100403.22
2023-01-15T21:05:21.916Z,100405.81
2023-01-15T21:06:28.050Z,100398.91
2023-01-15T21:07:33.892Z,100406.53
2023-01-15T21:08:37.524Z,100391.72
2023-01-15T21:09:40.990Z,100408.06
2023-01-15T21:10:59.127Z,100395.75
2023-01-15T21:12:03.281Z,100400.28
2023-01-15T21:13:10.807Z,100403.38
2023-01-15T21:14:15.870Z,100412.03
2023-01-15T21:15:20.544Z,100397.22
2023-01-15T21:16:27.037Z,100401.25
2023-01-15T21:17:31.520Z,100417.38
2023-01-15T21:18:45.465Z,100401.47
2023-01-15T21:19:49.481Z,100397.38
2023-01-15T21:20:58.625Z,100415.22
2023-01-15T21:22:05.708Z,100404.84
2023-01-15T21:23:10.965Z,100394.00
2023-01-15T21:24:17.417Z,100398.63
2023-01-15T21:25:22.260Z,100388.66
2023-01-15T21:26:27.341Z,100398.16
2023-01-15T21:27:33.634Z,100405.88
2023-01-15T21:28:39.344Z,100402.81
2023-01-15T21:29:48.987Z,100392.03
2023-01-15T21:30:52.070Z,100400.47
2023-01-15T21:32:00.650Z,100400.00
2023-01-15T21:33:12.540Z,100392.38
2023-01-15T21:34:20.080Z,100390.72
2023-01-15T21:35:23.438Z,100393.34
2023-01-15T21:36:28.252Z,100386.59
2023-01-15T21:37:31.675Z,100389.75
2023-01-15T21:38:35.830Z,100385.94
2023-01-15T21:39:39.424Z,100392.38
2023-01-15T21:40:42.699Z,100389.28
2023-01-15T21:42:04.743Z,100390.34
2023-01-15T21:43:26.493Z,100391.66
2023-01-15T21:44:32.587Z,100381.31
2023-01-15T21:45:38.941Z,100390.34
2023-01-15T21:46:43.471Z,100396.94
2023-01-15T21:47:49.898Z,100394.78
2023-01-15T21:48:53.268Z,100382.78
2023-01-15T21:50:00.218Z,100385.50
2023-01-15T21:51:06.676Z,100387.69
2023-01-15T21:52:15.966Z,100381.47
2023-01-15T21:53:21.077Z,100379.72
2023-01-15T21:54:25.347Z,100379.28
2023-01-15T21:55:30.895Z,100382.13
2023-01-15T21:56:38.907Z,100374.22
2023-01-15T21:57:45.178Z,100374.34
2023-01-15T21:58:51.250Z,100374.31
2023-01-15T22:00:00.383Z,100386.59
2023-01-15T22:01:14.870Z,100380.81
2023-01-15T22:02:22.058Z,100370.41
2023-01-15T22:03:25.809Z,100371.22
2023-01-15T22:04:31.559Z,100371.00
2023-01-15T22:05:34.858Z,100388.63
2023-01-15T22:06:38.220Z,100378.47
2023-01-15T22:07:41.623Z,100376.84
2023-01-15T22:08:48.257Z,100372.16
2023-01-15T22:09:52.958Z,100367.28
2023-01-15T22:11:06.890Z,100376.44
2023-01-15T22:12:10.907Z,100375.47
2023-01-15T22:13:14.572Z,100373.00
2023-01-15T22:14:22.184Z,100374.72
2023-01-15T22:15:32.513Z,100375.97
2023-01-15T22:16:36.913Z,100370.34
2023-01-15T22:17:40.546Z,100375.25
2023-01-15T22:18:49.846Z,100384.69
2023-01-15T22:19:53.237Z,100368.28
2023-01-15T22:21:02.036Z,100368.28
2023-01-15T22:22:10.938Z,100375.81
2023-01-15T22:23:14.799Z,100372.59
2023-01-15T22:24:23.229Z,100363.03
2023-01-15T22:25:28.809Z,100370.69
2023-01-15T22:26:35.784Z,100366.66
2023-01-15T22:27:43.977Z,100368.72
2023-01-15T22:28:48.154Z,100359.59
2023-01-15T22:29:52.074Z,100362.56
2023-01-15T22:30:57.704Z,100373.63
2023-01-15T22:32:03.698Z,100374.66
2023-01-15T22:33:06.918Z,100370.56
2023-01-15T22:34:13.236Z,100363.91
2023-01-15T22:35:19.401Z,100365.44